createdAt,value
2022-08-22T00:00:23.808Z,17.16
2022-08-22T00:01:23.898Z,17.15
2022-08-22T00:02:23.716Z,17.14
2022-08-22T00:02:46.132Z,20.02
2022-08-22T00:03:08.633Z,18.05
2022-08-22T00:03:12.645Z,18.70
2022-08-22T00:03:23.630Z,17.11
2022-08-22T00:04:23.545Z,17.07
2022-08-22T00:05:23.466Z,17.04
2022-08-22T00:06:23.417Z,17.04
2022-08-22T00:07:23.336Z,17.03
2022-08-22T00:08:24.346Z,17.01
2022-08-22T00:09:23.208Z,17.01
2022-08-22T00:10:25.519Z,16.98
2022-08-22T00:11:23.099Z,16.98
2022-08-22T00:12:23.045Z,16.98
2022-08-22T00:13:22.978Z,16.96
2022-08-22T00:14:23.674Z,16.94
2022-08-22T00:15:42.464Z,16.93
2022-08-22T00:16:22.777Z,16.91
2022-08-22T00:17:22.708Z,16.89
2022-08-22T00:18:22.634Z,16.88
2022-08-22T00:19:22.609Z,16.88
2022-08-22T00:20:28.099Z,16.86
2022-08-22T00:21:22.446Z,16.86
2022-08-22T00:22:22.388Z,16.88
2022-08-22T00:23:22.323Z,16.88
2022-08-22T00:24:22.289Z,16.86
2022-08-22T00:25:25.721Z,16.85
2022-08-22T00:26:23.668Z,16.83
2022-08-22T00:27:22.059Z,16.83
2022-08-22T00:28:22.002Z,16.82
2022-08-22T00:29:21.928Z,16.81
2022-08-22T00:30:21.868Z,16.79
2022-08-22T00:31:21.809Z,16.81
2022-08-22T00:32:21.762Z,16.79
2022-08-22T00:33:21.671Z,16.78
2022-08-22T00:34:21.607Z,16.78
2022-08-22T00:35:21.578Z,16.75
2022-08-22T00:36:21.499Z,16.73
2022-08-22T00:37:21.408Z,16.70
2022-08-22T00:38:21.367Z,16.67
2022-08-22T00:39:21.317Z,16.66
2022-08-22T00:40:21.294Z,16.64
2022-08-22T00:41:21.151Z,16.63
2022-08-22T00:42:29.086Z,16.61
2022-08-22T00:43:21.037Z,16.60
2022-08-22T00:44:22.517Z,16.58
2022-08-22T00:45:20.919Z,16.56
2022-08-22T00:46:20.831Z,16.56
2022-08-22T00:47:20.770Z,16.53
2022-08-22T00:48:20.705Z,16.50
2022-08-22T00:49:20.657Z,16.46
2022-08-22T00:50:21.363Z,16.46
2022-08-22T00:51:20.507Z,16.45
2022-08-22T00:52:20.450Z,16.45
2022-08-22T00:53:20.385Z,16.42
2022-08-22T00:54:20.347Z,16.43
2022-08-22T00:55:20.256Z,16.42
2022-08-22T00:56:20.251Z,16.42
2022-08-22T00:57:20.130Z,16.41
2022-08-22T00:58:20.057Z,16.41
2022-08-22T00:59:23.121Z,16.39
2022-08-22T01:00:19.951Z,16.39
2022-08-22T01:01:19.909Z,16.38
2022-08-22T01:02:20.574Z,16.35
2022-08-22T01:03:19.745Z,16.34
2022-08-22T01:04:19.687Z,16.33
2022-08-22T01:05:19.645Z,16.31
2022-08-22T01:06:19.544Z,16.30
2022-08-22T01:07:19.491Z,16.28
2022-08-22T01:08:19.443Z,16.28
2022-08-22T01:09:19.369Z,16.25
2022-08-22T01:10:19.284Z,16.24
2022-08-22T01:11:19.223Z,16.20
2022-08-22T01:12:19.169Z,16.15
2022-08-22T01:13:19.109Z,16.12
2022-08-22T01:14:20.271Z,16.11
2022-08-22T01:15:18.991Z,16.08
2022-08-22T01:16:18.915Z,16.05
2022-08-22T01:17:18.835Z,16.02
2022-08-22T01:18:18.789Z,16.00
2022-08-22T01:19:18.711Z,15.94
2022-08-22T01:20:19.455Z,15.93
2022-08-22T01:21:20.724Z,15.90
2022-08-22T01:22:18.525Z,15.86
2022-08-22T01:23:18.451Z,15.86
2022-08-22T01:24:18.397Z,15.86
2022-08-22T01:25:18.371Z,15.82
2022-08-22T01:26:19.822Z,15.80
2022-08-22T01:27:18.191Z,15.80
2022-08-22T01:28:18.131Z,15.80
2022-08-22T01:29:18.077Z,15.78
2022-08-22T01:30:18.028Z,15.76
2022-08-22T01:31:17.952Z,15.76
2022-08-22T01:32:18.661Z,15.76
2022-08-22T01:33:17.822Z,15.74
2022-08-22T01:34:17.761Z,15.71
2022-08-22T01:35:17.694Z,15.72
2022-08-22T01:36:17.627Z,15.69
2022-08-22T01:37:17.513Z,15.68
2022-08-22T01:38:17.492Z,15.67
2022-08-22T01:39:17.457Z,15.67
2022-08-22T01:40:17.390Z,15.64
2022-08-22T01:41:17.306Z,15.62
2022-08-22T01:42:17.226Z,15.60
2022-08-22T01:43:17.173Z,15.59
2022-08-22T01:44:17.113Z,15.57
2022-08-22T01:45:17.063Z,15.57
2022-08-22T01:46:20.634Z,15.56
2022-08-22T01:47:16.920Z,15.56
2022-08-22T01:48:16.858Z,15.54
2022-08-22T01:49:16.790Z,15.53
2022-08-22T01:50:17.517Z,15.53
2022-08-22T01:51:16.650Z,15.51
2022-08-22T01:52:19.513Z,15.51
2022-08-22T01:53:16.518Z,15.49
2022-08-22T01:54:16.465Z,15.49
2022-08-22T01:55:16.410Z,15.49
2022-08-22T01:56:16.333Z,15.50
2022-08-22T01:57:16.292Z,15.47
2022-08-22T01:58:16.206Z,15.47
2022-08-22T01:59:16.150Z,15.46
2022-08-22T02:00:16.062Z,15.43
2022-08-22T02:01:16.026Z,15.43
2022-08-22T02:02:17.170Z,15.41
2022-08-22T02:03:15.886Z,15.41
2022-08-22T02:04:15.822Z,15.41
2022-08-22T02:05:15.695Z,15.41
2022-08-22T02:06:15.698Z,15.41
2022-08-22T02:07:15.629Z,15.39
2022-08-22T02:08:15.577Z,15.36
2022-08-22T02:09:15.491Z,15.36
2022-08-22T02:10:15.421Z,15.34
2022-08-22T02:11:15.369Z,15.34
2022-08-22T02:12:21.945Z,15.31
2022-08-22T02:13:16.104Z,15.29
2022-08-22T02:14:15.191Z,15.27
2022-08-22T02:15:15.102Z,15.23
2022-08-22T02:16:15.038Z,15.23
2022-08-22T02:17:14.965Z,15.21
2022-08-22T02:18:14.905Z,15.20
2022-08-22T02:19:14.838Z,15.20
2022-08-22T02:20:17.086Z,15.20
2022-08-22T02:21:14.710Z,15.20
2022-08-22T02:22:14.649Z,15.19
2022-08-22T02:23:14.583Z,15.17
2022-08-22T02:24:14.530Z,15.16
2022-08-22T02:25:14.452Z,15.11
2022-08-22T02:26:14.434Z,15.11
2022-08-22T02:27:14.336Z,15.10
2022-08-22T02:28:14.259Z,15.09
2022-08-22T02:29:14.196Z,15.06
2022-08-22T02:30:14.133Z,15.03
2022-08-22T02:31:14.795Z,15.01
2022-08-22T02:32:14.031Z,14.98
2022-08-22T02:33:13.948Z,14.96
2022-08-22T02:34:13.887Z,14.98
2022-08-22T02:35:13.810Z,14.96
2022-08-22T02:36:13.738Z,14.95
2022-08-22T02:37:13.673Z,14.95
2022-08-22T02:38:14.414Z,14.94
2022-08-22T02:39:13.548Z,14.94
2022-08-22T02:40:13.561Z,14.92
2022-08-22T02:41:13.427Z,14.92
2022-08-22T02:42:13.353Z,14.92
2022-08-22T02:43:13.300Z,14.92
2022-08-22T02:44:14.448Z,14.91
2022-08-22T02:45:13.160Z,14.88
2022-08-22T02:46:13.105Z,14.86
2022-08-22T02:47:13.028Z,14.83
2022-08-22T02:48:12.984Z,14.81
2022-08-22T02:49:12.912Z,14.81
2022-08-22T02:50:13.222Z,14.80
2022-08-22T02:51:12.780Z,14.78
2022-08-22T02:52:12.710Z,14.77
2022-08-22T02:53:12.658Z,14.77
2022-08-22T02:54:12.596Z,14.78
2022-08-22T02:55:12.530Z,14.77
2022-08-22T02:56:12.480Z,14.75
2022-08-22T02:57:14.413Z,14.78
2022-08-22T02:58:12.330Z,14.73
2022-08-22T02:59:12.251Z,14.75
2022-08-22T03:00:31.819Z,14.73
2022-08-22T03:01:12.239Z,14.73
2022-08-22T03:02:13.290Z,14.72
2022-08-22T03:03:12.019Z,14.70
2022-08-22T03:04:11.949Z,14.68
2022-08-22T03:05:11.867Z,14.65
2022-08-22T03:06:11.817Z,14.62
2022-08-22T03:07:11.763Z,14.62
2022-08-22T03:08:12.879Z,14.61
2022-08-22T03:09:11.613Z,14.60
2022-08-22T03:10:11.556Z,14.57
2022-08-22T03:11:11.507Z,14.55
2022-08-22T03:12:11.427Z,14.55
2022-08-22T03:13:11.359Z,14.54
2022-08-22T03:14:11.322Z,14.52
2022-08-22T03:15:11.232Z,14.54
2022-08-22T03:16:11.167Z,14.52
2022-08-22T03:17:11.095Z,14.51
2022-08-22T03:18:11.041Z,14.51
2022-08-22T03:19:18.900Z,14.52
2022-08-22T03:20:10.930Z,14.52
2022-08-22T03:21:10.837Z,14.52
2022-08-22T03:22:10.789Z,14.55
2022-08-22T03:23:10.706Z,14.55
2022-08-22T03:24:10.643Z,14.55
2022-08-22T03:25:10.593Z,14.55
2022-08-22T03:26:10.862Z,14.54
2022-08-22T03:27:10.442Z,14.51
2022-08-22T03:28:10.379Z,14.52
2022-08-22T03:29:10.330Z,14.52
2022-08-22T03:30:10.267Z,14.51
2022-08-22T03:31:10.203Z,14.52
2022-08-22T03:32:10.144Z,14.51
2022-08-22T03:33:10.060Z,14.51
2022-08-22T03:34:10.011Z,14.50
2022-08-22T03:35:09.945Z,14.50
2022-08-22T03:36:09.860Z,14.50
2022-08-22T03:37:09.795Z,14.47
2022-08-22T03:38:09.755Z,14.46
2022-08-22T03:39:17.285Z,14.45
2022-08-22T03:40:09.664Z,14.42
2022-08-22T03:41:09.554Z,14.39
2022-08-22T03:42:09.500Z,14.36
2022-08-22T03:43:09.430Z,14.33
2022-08-22T03:44:10.120Z,14.33
2022-08-22T03:45:09.298Z,14.29
2022-08-22T03:46:09.223Z,14.27
2022-08-22T03:47:09.162Z,14.25
2022-08-22T03:48:09.103Z,14.25
2022-08-22T03:49:09.036Z,14.22
2022-08-22T03:50:08.929Z,14.22
2022-08-22T03:51:08.868Z,14.20
2022-08-22T03:52:08.785Z,14.18
2022-08-22T03:53:15.328Z,14.15
2022-08-22T03:54:08.662Z,14.17
2022-08-22T03:55:08.590Z,14.17
2022-08-22T03:56:08.533Z,14.15
2022-08-22T03:57:08.450Z,14.15
2022-08-22T03:58:13.650Z,14.14
2022-08-22T03:59:09.927Z,14.12
2022-08-22T04:00:08.269Z,14.10
2022-08-22T04:01:08.369Z,14.09
2022-08-22T04:02:42.262Z,14.09
2022-08-22T04:03:08.092Z,14.07
2022-08-22T04:04:08.016Z,14.06
2022-08-22T04:05:07.949Z,14.03
2022-08-22T04:06:12.818Z,14.02
2022-08-22T04:07:28.015Z,14.03
2022-08-22T04:08:09.503Z,14.00
2022-08-22T04:09:07.675Z,13.99
2022-08-22T04:10:07.624Z,13.99
2022-08-22T04:11:07.552Z,13.97
2022-08-22T04:12:07.502Z,13.96
2022-08-22T04:13:07.419Z,13.97
2022-08-22T04:14:08.146Z,13.96
2022-08-22T04:15:07.320Z,13.92
2022-08-22T04:16:07.234Z,13.95
2022-08-22T04:17:07.158Z,13.91
2022-08-22T04:18:07.095Z,13.92
2022-08-22T04:19:08.042Z,13.95
2022-08-22T04:20:06.992Z,13.91
2022-08-22T04:21:06.922Z,13.91
2022-08-22T04:22:06.831Z,13.91
2022-08-22T04:23:06.782Z,13.91
2022-08-22T04:24:06.718Z,13.91
2022-08-22T04:25:08.214Z,13.89
2022-08-22T04:26:10.809Z,13.89
2022-08-22T04:27:06.529Z,13.88
2022-08-22T04:28:06.461Z,13.88
2022-08-22T04:29:06.384Z,13.87
2022-08-22T04:30:06.331Z,13.87
2022-08-22T04:31:06.260Z,13.85
2022-08-22T04:32:06.231Z,13.87
2022-08-22T04:33:06.121Z,13.84
2022-08-22T04:34:06.070Z,13.84
2022-08-22T04:35:06.001Z,13.82
2022-08-22T04:36:05.936Z,13.82
2022-08-22T04:37:05.874Z,13.82
2022-08-22T04:38:09.146Z,13.82
2022-08-22T04:39:05.734Z,13.81
2022-08-22T04:40:05.737Z,13.81
2022-08-22T04:41:05.624Z,13.81
2022-08-22T04:42:29.187Z,13.81
2022-08-22T04:43:05.497Z,13.79
2022-08-22T04:44:05.426Z,13.78
2022-08-22T04:45:05.367Z,13.79
2022-08-22T04:46:05.279Z,13.79
2022-08-22T04:47:05.228Z,13.79
2022-08-22T04:48:05.186Z,13.81
2022-08-22T04:49:05.099Z,13.81
2022-08-22T04:50:05.812Z,13.82
2022-08-22T04:51:04.960Z,13.82
2022-08-22T04:52:04.895Z,13.81
2022-08-22T04:53:04.825Z,13.82
2022-08-22T04:54:04.776Z,13.82
2022-08-22T04:55:04.695Z,13.82
2022-08-22T04:56:07.693Z,13.82
2022-08-22T04:57:04.579Z,13.84
2022-08-22T04:58:06.457Z,13.84
2022-08-22T04:59:04.443Z,13.87
2022-08-22T05:00:04.395Z,13.88
2022-08-22T05:01:04.325Z,13.88
2022-08-22T05:02:05.058Z,13.88
2022-08-22T05:03:04.190Z,13.89
2022-08-22T05:04:04.117Z,13.91
2022-08-22T05:05:04.065Z,13.91
2022-08-22T05:06:03.994Z,13.91
2022-08-22T05:07:03.928Z,13.91
2022-08-22T05:08:03.869Z,13.92
2022-08-22T05:09:03.790Z,13.96
2022-08-22T05:10:09.373Z,13.95
2022-08-22T05:11:03.677Z,13.95
2022-08-22T05:12:03.603Z,13.97
2022-08-22T05:13:03.524Z,13.96
2022-08-22T05:14:05.013Z,13.96
2022-08-22T05:15:03.402Z,13.99
2022-08-22T05:16:03.352Z,13.99
2022-08-22T05:17:03.289Z,14.00
2022-08-22T05:18:03.207Z,13.99
2022-08-22T05:19:03.159Z,14.02
2022-08-22T05:20:03.093Z,14.03
2022-08-22T05:21:03.022Z,14.06
2022-08-22T05:22:02.966Z,14.03
2022-08-22T05:23:02.897Z,14.06
2022-08-22T05:24:02.813Z,14.07
2022-08-22T05:25:02.757Z,14.10
2022-08-22T05:26:02.704Z,14.10
2022-08-22T05:27:02.636Z,14.14
2022-08-22T05:28:02.553Z,14.17
2022-08-22T05:29:02.491Z,14.18
2022-08-22T05:30:03.154Z,14.20
2022-08-22T05:31:02.374Z,14.22
2022-08-22T05:32:02.326Z,14.25
2022-08-22T05:33:02.265Z,14.25
2022-08-22T05:34:02.171Z,14.28
2022-08-22T05:35:02.116Z,14.29
2022-08-22T05:36:02.051Z,14.33
2022-08-22T05:37:02.017Z,14.35
2022-08-22T05:38:04.596Z,14.36
2022-08-22T05:39:01.838Z,14.37
2022-08-22T05:40:01.850Z,14.39
2022-08-22T05:41:01.719Z,14.43
2022-08-22T05:42:01.663Z,14.46
2022-08-22T05:43:01.593Z,14.52
2022-08-22T05:44:01.540Z,14.54
2022-08-22T05:45:01.477Z,14.60
2022-08-22T05:46:01.392Z,14.68
2022-08-22T05:47:01.332Z,14.73
2022-08-22T05:48:01.283Z,14.81
2022-08-22T05:49:01.214Z,14.91
2022-08-22T05:50:01.154Z,15.02
2022-08-22T05:51:01.196Z,15.11
2022-08-22T05:52:01.023Z,15.21
2022-08-22T05:53:00.943Z,15.32
2022-08-22T05:54:00.895Z,15.49
2022-08-22T05:55:00.812Z,15.82
2022-08-22T05:56:01.955Z,16.12
2022-08-22T05:57:03.088Z,16.46
2022-08-22T05:58:00.626Z,16.81
2022-08-22T05:59:00.551Z,17.16
2022-08-22T06:00:00.498Z,17.49
2022-08-22T06:01:00.418Z,17.72
2022-08-22T06:02:00.473Z,17.99
2022-08-22T06:03:00.319Z,18.18
2022-08-22T06:04:00.230Z,18.41
2022-08-22T06:05:00.213Z,18.63
2022-08-22T06:06:00.098Z,18.87
2022-08-22T06:07:00.053Z,19.11
2022-08-22T06:08:00.137Z,19.39
2022-08-22T06:08:59.944Z,19.59
2022-08-22T06:09:59.856Z,19.80
2022-08-22T06:10:59.799Z,20.03
2022-08-22T06:11:59.712Z,20.23
2022-08-22T06:12:59.645Z,20.38
2022-08-22T06:14:02.002Z,20.59
2022-08-22T06:14:59.523Z,20.79
2022-08-22T06:15:59.477Z,20.97
2022-08-22T06:16:59.410Z,21.10
2022-08-22T06:17:59.615Z,21.22
2022-08-22T06:18:59.276Z,21.24
2022-08-22T06:19:59.220Z,21.24
2022-08-22T06:20:59.135Z,21.24
2022-08-22T06:21:59.075Z,21.25
2022-08-22T06:22:59.027Z,21.31
2022-08-22T06:23:58.942Z,21.35
2022-08-22T06:24:58.890Z,21.24
2022-08-22T06:25:58.833Z,21.14
2022-08-22T06:26:58.757Z,21.27
2022-08-22T06:27:58.878Z,21.47
2022-08-22T06:28:58.665Z,21.58
2022-08-22T06:29:58.562Z,21.69
2022-08-22T06:30:58.508Z,21.91
2022-08-22T06:32:00.864Z,22.10
2022-08-22T06:33:00.946Z,22.25
2022-08-22T06:33:58.330Z,22.31
2022-08-22T06:34:58.245Z,22.49
2022-08-22T06:35:58.183Z,22.55
2022-08-22T06:36:58.138Z,22.64
2022-08-22T06:37:58.188Z,22.85
2022-08-22T06:38:57.990Z,22.90
2022-08-22T06:39:57.998Z,22.92
2022-08-22T06:40:57.892Z,22.97
2022-08-22T06:41:57.806Z,22.94
2022-08-22T06:42:57.750Z,23.01
2022-08-22T06:43:57.715Z,23.12
2022-08-22T06:44:57.624Z,23.23
2022-08-22T06:45:57.547Z,23.38
2022-08-22T06:46:57.501Z,23.55
2022-08-22T06:48:00.571Z,23.73
2022-08-22T06:48:57.375Z,23.84
2022-08-22T06:49:57.318Z,24.02
2022-08-22T06:50:57.244Z,24.21
2022-08-22T06:51:57.186Z,24.34
2022-08-22T06:52:57.102Z,24.31
2022-08-22T06:53:57.085Z,24.27
2022-08-22T06:54:57.029Z,24.28
2022-08-22T06:55:56.947Z,24.34
2022-08-22T06:56:56.850Z,24.39
2022-08-22T06:57:56.839Z,24.45
2022-08-22T06:58:56.764Z,24.53
2022-08-22T06:59:56.707Z,24.58
2022-08-22T07:01:05.205Z,24.61
2022-08-22T07:01:58.923Z,24.68
2022-08-22T07:02:56.496Z,24.78
2022-08-22T07:03:56.459Z,24.98
2022-08-22T07:04:56.419Z,25.17
2022-08-22T07:05:56.323Z,25.39
2022-08-22T07:06:56.265Z,25.65
2022-08-22T07:07:56.228Z,25.90
2022-08-22T07:08:56.118Z,26.10
2022-08-22T07:09:56.051Z,26.29
2022-08-22T07:10:56.016Z,26.50
2022-08-22T07:11:55.957Z,26.60
2022-08-22T07:12:55.872Z,26.66
2022-08-22T07:13:55.847Z,26.73
2022-08-22T07:14:55.734Z,26.77
2022-08-22T07:15:56.317Z,26.67
2022-08-22T07:16:55.608Z,26.51
2022-08-22T07:17:55.578Z,26.35
2022-08-22T07:18:55.517Z,26.26
2022-08-22T07:19:56.628Z,26.21
2022-08-22T07:20:55.410Z,26.06
2022-08-22T07:21:55.327Z,26.07
2022-08-22T07:22:55.233Z,26.10
2022-08-22T07:23:55.167Z,26.06
2022-08-22T07:24:55.119Z,26.06
2022-08-22T07:25:55.058Z,26.12
2022-08-22T07:26:55.001Z,26.25
2022-08-22T07:27:55.074Z,26.37
2022-08-22T07:28:58.639Z,26.50
2022-08-22T07:29:54.809Z,26.52
2022-08-22T07:30:54.729Z,26.45
2022-08-22T07:31:54.699Z,26.48
2022-08-22T07:32:54.627Z,26.58
2022-08-22T07:33:54.548Z,26.72
2022-08-22T07:34:54.502Z,26.76
2022-08-22T07:35:54.435Z,26.76
2022-08-22T07:36:54.383Z,26.80
2022-08-22T07:37:55.553Z,26.73
2022-08-22T07:38:54.248Z,26.69
2022-08-22T07:39:54.212Z,26.67
2022-08-22T07:40:54.128Z,26.72
2022-08-22T07:41:54.072Z,26.81
2022-08-22T07:42:53.995Z,26.89
2022-08-22T07:43:53.970Z,27.04
2022-08-22T07:44:53.894Z,27.12
2022-08-22T07:45:53.821Z,27.31
2022-08-22T07:46:53.765Z,27.54
2022-08-22T07:47:53.762Z,27.78
2022-08-22T07:49:08.685Z,28.06
2022-08-22T07:49:53.849Z,28.27
2022-08-22T07:50:53.521Z,28.40
2022-08-22T07:51:53.450Z,28.12
2022-08-22T07:52:53.419Z,27.72
2022-08-22T07:53:53.350Z,27.46
2022-08-22T07:54:53.254Z,27.54
2022-08-22T07:55:53.975Z,27.72
2022-08-22T07:56:53.142Z,27.78
2022-08-22T07:57:53.127Z,27.97
2022-08-22T07:58:53.023Z,28.17
2022-08-22T07:59:52.953Z,28.36
2022-08-22T08:00:52.890Z,28.62
2022-08-22T08:01:52.890Z,28.68
2022-08-22T08:02:52.814Z,28.67
2022-08-22T08:03:52.710Z,28.46
2022-08-22T08:04:52.663Z,28.18
2022-08-22T08:05:52.590Z,28.27
2022-08-22T08:06:52.530Z,28.21
2022-08-22T08:07:52.487Z,28.14
2022-08-22T08:08:52.435Z,28.21
2022-08-22T08:09:52.348Z,28.30
2022-08-22T08:10:52.296Z,28.15
2022-08-22T08:11:52.228Z,27.88
2022-08-22T08:12:54.211Z,27.57
2022-08-22T08:13:53.343Z,27.59
2022-08-22T08:14:52.031Z,27.66
2022-08-22T08:15:52.214Z,27.57
2022-08-22T08:16:52.584Z,27.69
2022-08-22T08:17:51.846Z,27.92
2022-08-22T08:18:51.801Z,28.06
2022-08-22T08:19:51.881Z,28.19
2022-08-22T08:20:51.692Z,28.31
2022-08-22T08:21:51.603Z,28.37
2022-08-22T08:22:51.552Z,28.55
2022-08-22T08:23:51.506Z,28.89
2022-08-22T08:24:51.420Z,29.15
2022-08-22T08:25:53.836Z,29.36
2022-08-22T08:26:51.346Z,29.46
2022-08-22T08:27:51.413Z,29.49
2022-08-22T08:28:51.182Z,29.70
2022-08-22T08:29:51.194Z,29.92
2022-08-22T08:30:51.079Z,30.20
2022-08-22T08:31:51.878Z,30.45
2022-08-22T08:32:50.976Z,30.64
2022-08-22T08:33:50.953Z,30.91
2022-08-22T08:34:50.832Z,30.84
2022-08-22T08:36:02.390Z,30.16
2022-08-22T08:36:50.714Z,29.78
2022-08-22T08:37:50.646Z,29.61
2022-08-22T08:38:50.589Z,29.39
2022-08-22T08:39:50.602Z,29.27
2022-08-22T08:40:50.485Z,29.31
2022-08-22T08:41:50.402Z,29.45
2022-08-22T08:42:50.322Z,29.11
2022-08-22T08:43:50.340Z,29.00
2022-08-22T08:44:50.258Z,29.00
2022-08-22T08:45:50.143Z,29.06
2022-08-22T08:46:55.196Z,29.15
2022-08-22T08:47:50.050Z,29.26
2022-08-22T08:48:49.975Z,29.34
2022-08-22T08:49:52.246Z,29.41
2022-08-22T08:50:49.853Z,29.43
2022-08-22T08:51:49.821Z,29.61
2022-08-22T08:52:52.857Z,29.61
2022-08-22T08:53:49.938Z,29.57
2022-08-22T08:54:49.924Z,29.58
2022-08-22T08:55:50.964Z,29.42
2022-08-22T08:56:49.492Z,29.18
2022-08-22T08:57:49.431Z,29.21
2022-08-22T08:58:49.394Z,29.26
2022-08-22T08:59:49.311Z,29.28
2022-08-22T09:00:49.342Z,29.36
2022-08-22T09:01:50.203Z,29.14
2022-08-22T09:02:49.129Z,29.15
2022-08-22T09:03:49.067Z,29.21
2022-08-22T09:04:49.185Z,29.33
2022-08-22T09:05:48.945Z,29.21
2022-08-22T09:06:52.746Z,28.95
2022-08-22T09:07:48.849Z,28.85
2022-08-22T09:08:53.881Z,28.78
2022-08-22T09:40:16.149Z,28.88
2022-08-22T09:40:30.145Z,30.86
2022-08-22T09:41:30.071Z,30.82
2022-08-22T09:42:30.026Z,30.67
2022-08-22T09:43:29.994Z,30.58
2022-08-22T09:44:29.895Z,30.57
2022-08-22T09:45:32.887Z,30.49
2022-08-22T09:46:32.387Z,30.37
2022-08-22T09:47:31.321Z,30.27
2022-08-22T09:48:29.665Z,30.22
2022-08-22T09:49:29.581Z,30.22
2022-08-22T09:50:29.656Z,30.23
2022-08-22T09:51:31.437Z,30.19
2022-08-22T09:52:33.944Z,30.20
2022-08-22T09:53:29.371Z,30.26
2022-08-22T09:54:31.190Z,30.32
2022-08-22T09:55:35.280Z,30.42
2022-08-22T09:56:29.177Z,30.47
2022-08-22T09:57:29.147Z,30.57
2022-08-22T09:58:29.071Z,30.61
2022-08-22T09:59:29.043Z,30.72
2022-08-22T10:00:28.917Z,30.80
2022-08-22T10:01:32.788Z,30.92
2022-08-22T10:02:28.813Z,31.06
2022-08-22T10:03:28.766Z,31.14
2022-08-22T10:04:28.677Z,31.20
2022-08-22T10:05:41.042Z,31.28
2022-08-22T10:06:28.593Z,31.35
2022-08-22T10:07:28.513Z,31.38
2022-08-22T10:08:28.484Z,31.26
2022-08-22T10:09:31.392Z,31.02
2022-08-22T10:10:28.329Z,31.01
2022-08-22T10:11:28.734Z,31.02
2022-08-22T10:12:30.547Z,31.06
2022-08-22T10:13:28.140Z,31.04
2022-08-22T10:14:28.091Z,30.82
2022-08-22T10:15:28.146Z,30.67
2022-08-22T10:16:27.957Z,30.69
2022-08-22T10:17:27.943Z,30.80
2022-08-22T10:18:28.606Z,30.94
2022-08-22T10:19:27.796Z,30.92
2022-08-22T10:20:27.852Z,30.89
2022-08-22T10:21:27.678Z,30.86
2022-08-22T10:22:30.300Z,30.76
2022-08-22T10:23:27.564Z,30.38
2022-08-22T10:24:27.494Z,30.15
2022-08-22T10:25:28.445Z,29.74
2022-08-22T10:26:27.450Z,29.58
2022-08-22T10:27:30.377Z,29.57
2022-08-22T10:28:28.594Z,29.64
2022-08-22T10:29:27.192Z,29.67
2022-08-22T10:30:27.623Z,29.64
2022-08-22T10:31:27.081Z,29.70
2022-08-22T10:32:27.231Z,29.82
2022-08-22T10:33:29.054Z,29.92
2022-08-22T10:34:26.893Z,30.08
2022-08-22T10:35:26.848Z,30.20
2022-08-22T10:36:26.798Z,30.24
2022-08-22T10:37:26.702Z,30.20
2022-08-22T10:38:27.639Z,30.04
2022-08-22T10:39:26.690Z,29.87
2022-08-22T10:40:26.709Z,29.70
2022-08-22T10:41:26.482Z,29.68
2022-08-22T10:42:27.988Z,29.67
2022-08-22T10:43:28.743Z,29.70
2022-08-22T10:44:27.156Z,29.80
2022-08-22T10:45:35.770Z,29.90
2022-08-22T10:46:26.288Z,30.07
2022-08-22T10:47:26.133Z,30.04
2022-08-22T10:48:26.075Z,30.10
2022-08-22T10:49:28.402Z,30.22
2022-08-22T10:50:31.208Z,30.01
2022-08-22T10:51:28.646Z,29.65
2022-08-22T10:52:25.830Z,29.60
2022-08-22T10:53:28.929Z,29.58
2022-08-22T10:54:25.682Z,29.65
2022-08-22T10:55:25.624Z,29.83
2022-08-22T10:56:27.358Z,30.00
2022-08-22T10:57:25.527Z,30.07
2022-08-22T10:58:25.469Z,30.13
2022-08-22T10:59:25.414Z,30.04
2022-08-22T11:00:25.629Z,30.05
2022-08-22T11:01:38.314Z,30.05
2022-08-22T11:02:25.213Z,30.05
2022-08-22T11:03:25.929Z,30.00
2022-08-22T11:04:28.045Z,29.94
2022-08-22T11:05:25.033Z,29.94
2022-08-22T11:06:24.980Z,29.94
2022-08-22T11:07:24.932Z,29.73
2022-08-22T11:08:25.532Z,29.26
2022-08-22T11:09:26.024Z,28.90
2022-08-22T11:10:24.727Z,28.73
2022-08-22T11:11:24.663Z,28.66
2022-08-22T11:12:28.231Z,28.66
2022-08-22T11:13:24.557Z,28.58
2022-08-22T11:14:24.487Z,28.56
2022-08-22T11:15:34.751Z,28.58
2022-08-22T11:16:24.350Z,28.52
2022-08-22T11:17:31.124Z,28.31
2022-08-22T11:18:24.242Z,28.00
2022-08-22T11:19:24.175Z,27.82
2022-08-22T11:20:24.137Z,27.67
2022-08-22T11:21:24.093Z,27.54
2022-08-22T11:22:24.062Z,27.50
2022-08-22T11:23:24.019Z,27.49
2022-08-22T11:24:30.081Z,27.50
2022-08-22T11:25:36.009Z,27.59
2022-08-22T11:26:33.698Z,27.70
2022-08-22T11:27:30.676Z,27.82
2022-08-22T11:28:23.642Z,27.93
2022-08-22T11:29:23.565Z,28.04
2022-08-22T11:30:23.486Z,28.11
2022-08-22T11:31:23.428Z,28.22
2022-08-22T11:32:23.359Z,28.33
2022-08-22T11:33:32.538Z,28.44
2022-08-22T11:34:25.641Z,28.58
2022-08-22T11:35:25.059Z,28.70
2022-08-22T11:36:26.198Z,28.80
2022-08-22T11:37:23.748Z,28.90
2022-08-22T11:38:24.265Z,28.89
2022-08-22T11:39:24.188Z,28.78
2022-08-22T11:40:22.915Z,28.68
2022-08-22T11:41:22.827Z,28.59
2022-08-22T11:42:22.766Z,28.59
2022-08-22T11:43:22.730Z,28.64
2022-08-22T11:44:22.666Z,28.62
2022-08-22T11:45:23.366Z,28.68
2022-08-22T11:46:22.502Z,28.74
2022-08-22T11:47:24.818Z,28.73
2022-08-22T11:48:22.388Z,28.70
2022-08-22T11:49:25.592Z,28.67
2022-08-22T11:50:22.256Z,28.68
2022-08-22T11:51:24.704Z,28.67
2022-08-22T11:52:22.156Z,28.64
2022-08-22T11:53:22.658Z,28.51
2022-08-22T11:54:22.014Z,28.46
2022-08-22T11:55:21.960Z,28.44
2022-08-22T11:56:21.899Z,28.34
2022-08-22T11:57:22.611Z,28.21
2022-08-22T11:58:21.775Z,28.06
2022-08-22T11:59:22.554Z,27.92
2022-08-22T12:00:21.641Z,27.75
2022-08-22T12:01:21.590Z,27.78
2022-08-22T12:02:21.557Z,27.92
2022-08-22T12:03:23.270Z,28.04
2022-08-22T12:04:21.408Z,28.00
2022-08-22T12:05:26.222Z,27.97
2022-08-22T12:06:21.298Z,27.93
2022-08-22T12:07:21.212Z,27.92
2022-08-22T12:08:21.519Z,27.88
2022-08-22T12:09:21.119Z,27.85
2022-08-22T12:10:21.043Z,27.87
2022-08-22T12:11:20.982Z,28.04
2022-08-22T12:12:20.922Z,28.25
2022-08-22T12:13:20.858Z,28.34
2022-08-22T12:14:20.783Z,28.39
2022-08-22T12:15:21.323Z,28.33
2022-08-22T12:16:20.671Z,28.31
2022-08-22T12:17:41.567Z,28.37
2022-08-22T12:18:21.543Z,28.43
2022-08-22T12:19:23.036Z,28.52
2022-08-22T12:20:20.453Z,28.59
2022-08-22T12:21:21.557Z,28.58
2022-08-22T12:22:20.299Z,28.56
2022-08-22T12:23:20.280Z,28.56
2022-08-22T12:24:21.032Z,28.55
2022-08-22T12:25:20.105Z,28.56
2022-08-22T12:26:22.154Z,28.58
2022-08-22T12:27:29.238Z,28.54
2022-08-22T12:28:20.376Z,28.51
2022-08-22T12:29:19.905Z,28.49
2022-08-22T12:30:19.816Z,28.52
2022-08-22T12:31:19.769Z,28.54
2022-08-22T12:32:26.280Z,28.48
2022-08-22T12:33:23.098Z,28.46
2022-08-22T12:34:19.567Z,28.52
2022-08-22T12:35:19.502Z,28.52
2022-08-22T12:36:19.450Z,28.51
2022-08-22T12:37:19.372Z,28.49
2022-08-22T12:38:28.040Z,28.52
2022-08-22T12:39:20.469Z,28.56
2022-08-22T12:40:19.305Z,28.71
2022-08-22T12:41:28.037Z,28.93
2022-08-22T12:42:19.104Z,29.11
2022-08-22T12:43:18.999Z,29.19
2022-08-22T12:44:18.954Z,29.14
2022-08-22T12:45:19.172Z,29.11
2022-08-22T12:46:19.008Z,29.06
2022-08-22T12:47:18.825Z,29.02
2022-08-22T12:48:18.706Z,28.92
2022-08-22T12:49:18.647Z,28.80
2022-08-22T12:50:18.598Z,28.68
2022-08-22T12:51:20.185Z,28.56
2022-08-22T12:52:18.585Z,28.44
2022-08-22T12:53:20.296Z,28.37
2022-08-22T12:54:18.336Z,28.33
2022-08-22T12:55:18.342Z,28.21
2022-08-22T12:56:18.241Z,28.02
2022-08-22T12:57:23.714Z,27.92
2022-08-22T12:58:19.153Z,27.90
2022-08-22T12:59:18.052Z,27.94
2022-08-22T13:00:17.969Z,27.96
2022-08-22T13:01:17.985Z,27.96
2022-08-22T13:02:17.824Z,27.97
2022-08-22T13:03:17.796Z,27.99
2022-08-22T13:04:32.404Z,28.02
2022-08-22T13:05:19.823Z,28.06
2022-08-22T13:06:17.589Z,28.09
2022-08-22T13:07:17.517Z,28.14
2022-08-22T13:08:17.796Z,28.18
2022-08-22T13:09:17.460Z,28.24
2022-08-22T13:10:17.683Z,28.29
2022-08-22T13:11:22.416Z,28.34
2022-08-22T13:12:20.060Z,28.39
2022-08-22T13:13:17.169Z,28.40
2022-08-22T13:14:18.990Z,28.41
2022-08-22T13:15:19.045Z,28.46
2022-08-22T13:16:16.980Z,28.49
2022-08-22T13:17:24.450Z,28.52
2022-08-22T13:18:30.566Z,28.49